DIASE EDDG-EDDG
Flight info
| Callsign | DIASE |
|---|---|
| Flight time | 0h 4m |
| Altitude | |
| Route | |
| Aircraft | PA28 |
Departure
| Time | 2026-05-08 18:53 |
|---|---|
| Airport | Münster Osnabrück Airport (EDDG) |
Arrival
| Time | 2026-05-08 18:57 |
|---|---|
| Airport | Münster Osnabrück Airport (EDDG) |
| Time | Latitude | Longitude | Altitude | Speed | Heading |
|---|---|---|---|---|---|
| 2026-05-08 18:41 | 52.13154 | 7.68319 | 164 ft | 0 kts | 270° |
| 2026-05-08 18:44 | 52.13155 | 7.68296 | 164 ft | 9 kts | 277° |
| 2026-05-08 18:44 | 52.13199 | 7.68334 | 164 ft | 9 kts | 52° |
| 2026-05-08 18:44 | 52.13211 | 7.68342 | 164 ft | 0 kts | 353° |
| 2026-05-08 18:45 | 52.13227 | 7.68336 | 164 ft | 8 kts | 324° |
| 2026-05-08 18:45 | 52.13317 | 7.68288 | 164 ft | 8 kts | 340° |
| 2026-05-08 18:45 | 52.13331 | 7.68281 | 164 ft | 0 kts | 341° |
| 2026-05-08 18:46 | 52.13363 | 7.68262 | 164 ft | 17 kts | 345° |
| 2026-05-08 18:46 | 52.13442 | 7.68379 | 165 ft | 17 kts | 70° |
| 2026-05-08 18:46 | 52.13556 | 7.68909 | 181 ft | 79 kts | 68° |
| 2026-05-08 18:47 | 52.13846 | 7.69653 | 567 ft | 83 kts | 38° |
| 2026-05-08 18:47 | 52.14489 | 7.69951 | 613 ft | 122 kts | 344° |
| 2026-05-08 18:47 | 52.14916 | 7.68740 | 490 ft | 135 kts | 273° |
| 2026-05-08 18:47 | 52.14759 | 7.67340 | 655 ft | 115 kts | 258° |
| 2026-05-08 18:48 | 52.14562 | 7.66094 | 673 ft | 115 kts | 253° |
| 2026-05-08 18:48 | 52.14315 | 7.64873 | 677 ft | 101 kts | 248° |
| 2026-05-08 18:48 | 52.13871 | 7.64183 | 643 ft | 86 kts | 193° |
| 2026-05-08 18:48 | 52.13283 | 7.64375 | 484 ft | 89 kts | 150° |
| 2026-05-08 18:49 | 52.12930 | 7.65029 | 455 ft | 75 kts | 93° |
| 2026-05-08 18:49 | 52.12964 | 7.65908 | 338 ft | 81 kts | 78° |
| 2026-05-08 18:49 | 52.13114 | 7.66797 | 219 ft | 78 kts | 70° |
| 2026-05-08 18:49 | 52.13263 | 7.67523 | 156 ft | 57 kts | 72° |
| 2026-05-08 18:50 | 52.13418 | 7.68278 | 281 ft | 84 kts | 71° |
| 2026-05-08 18:50 | 52.13866 | 7.68880 | 454 ft | 110 kts | 355° |
| 2026-05-08 18:50 | 52.14363 | 7.67888 | 527 ft | 135 kts | 277° |
| 2026-05-08 18:50 | 52.14190 | 7.66503 | 581 ft | 117 kts | 249° |
| 2026-05-08 18:51 | 52.13889 | 7.65329 | 622 ft | 109 kts | 246° |
| 2026-05-08 18:51 | 52.13483 | 7.64336 | 658 ft | 101 kts | 206° |
| 2026-05-08 18:51 | 52.12885 | 7.64623 | 606 ft | 97 kts | 118° |
| 2026-05-08 18:51 | 52.12873 | 7.65716 | 423 ft | 95 kts | 65° |
| 2026-05-08 18:52 | 52.13079 | 7.66655 | 257 ft | 82 kts | 68° |
| 2026-05-08 18:52 | 52.13241 | 7.67447 | 155 ft | 62 kts | 68° |
| 2026-05-08 18:52 | 52.13390 | 7.68111 | 201 ft | 79 kts | 70° |
| 2026-05-08 18:52 | 52.13589 | 7.69055 | 487 ft | 95 kts | 69° |
| 2026-05-08 18:53 | 52.13837 | 7.70156 | 753 ft | 112 kts | 68° |
| 2026-05-08 18:53 | 52.14326 | 7.71195 | 905 ft | 128 kts | 29° |
| 2026-05-08 18:53 | 52.15201 | 7.70803 | 885 ft | 152 kts | 309° |
| 2026-05-08 18:53 | 52.15252 | 7.69256 | 733 ft | 140 kts | 248° |
| 2026-05-08 18:54 | 52.14890 | 7.67903 | 788 ft | 123 kts | 243° |
| 2026-05-08 18:54 | 52.14495 | 7.66684 | 750 ft | 125 kts | 237° |
| 2026-05-08 18:54 | 52.14012 | 7.65543 | 708 ft | 118 kts | 234° |
| 2026-05-08 18:54 | 52.13590 | 7.64406 | 718 ft | 114 kts | 237° |
| 2026-05-08 18:55 | 52.12709 | 7.62184 | 709 ft | 123 kts | 225° |
| 2026-05-08 18:55 | 52.11942 | 7.61939 | 722 ft | 112 kts | 151° |
| 2026-05-08 18:55 | 52.11697 | 7.62981 | 633 ft | 105 kts | 72° |
| 2026-05-08 18:56 | 52.12103 | 7.63870 | 675 ft | 97 kts | 49° |
| 2026-05-08 18:56 | 52.12477 | 7.64613 | 494 ft | 75 kts | 56° |
| 2026-05-08 18:56 | 52.12745 | 7.65358 | 367 ft | 80 kts | 64° |
| 2026-05-08 18:56 | 52.12985 | 7.66236 | 313 ft | 91 kts | 69° |
| 2026-05-08 18:57 | 52.13185 | 7.67131 | 169 ft | 72 kts | 71° |
| 2026-05-08 18:57 | 52.13273 | 7.67578 | 157 ft | 54 kts | 73° |
| 2026-05-08 18:57 | 52.13411 | 7.68207 | 163 ft | 40 kts | 71° |
| 2026-05-08 18:57 | 52.13531 | 7.68812 | 201 ft | 79 kts | 71° |
| 2026-05-08 18:58 | 52.13727 | 7.69677 | 540 ft | 90 kts | 68° |
| 2026-05-08 18:58 | 52.14215 | 7.70562 | 593 ft | 124 kts | 19° |
| 2026-05-08 18:58 | 52.14898 | 7.69872 | 486 ft | 128 kts | 282° |
| 2026-05-08 18:58 | 52.14698 | 7.68578 | 570 ft | 115 kts | 248° |
| 2026-05-08 18:59 | 52.14377 | 7.67412 | 645 ft | 109 kts | 242° |
| 2026-05-08 18:59 | 52.14000 | 7.66281 | 592 ft | 116 kts | 243° |
| 2026-05-08 18:59 | 52.13632 | 7.65198 | 592 ft | 100 kts | 209° |
| 2026-05-08 18:59 | 52.13070 | 7.65363 | 410 ft | 80 kts | 137° |
| 2026-05-08 19:00 | 52.12977 | 7.65879 | 365 ft | 71 kts | 81° |
| 2026-05-08 19:00 | 52.13137 | 7.66899 | 209 ft | 63 kts | 75° |
| 2026-05-08 19:00 | 52.13260 | 7.67520 | 156 ft | 50 kts | 71° |
| 2026-05-08 19:00 | 52.13349 | 7.67937 | 160 ft | 34 kts | 72° |
| 2026-05-08 19:01 | 52.13397 | 7.68199 | 163 ft | 0 kts | 113° |
| 2026-05-08 19:01 | 52.13394 | 7.68212 | 163 ft | 6 kts | 111° |
| 2026-05-08 19:01 | 52.13340 | 7.68275 | 164 ft | 13 kts | 161° |
| 2026-05-08 19:01 | 52.13289 | 7.68303 | 164 ft | 0 kts | 160° |
| 2026-05-08 19:03 | 52.13242 | 7.68332 | 164 ft | 15 kts | 161° |
| 2026-05-08 19:03 | 52.13138 | 7.68387 | 164 ft | 10 kts | 162° |
| 2026-05-08 19:03 | 52.13127 | 7.68464 | 163 ft | 11 kts | 360° |
| 2026-05-08 19:03 | 52.13147 | 7.68492 | 162 ft | 0 kts | 90° |
| 2026-05-08 19:05 | 52.13147 | 7.68501 | 162 ft | 4 kts | 96° |
| 2026-05-08 19:05 | 52.13104 | 7.68493 | 162 ft | 12 kts | 269° |
| 2026-05-08 19:06 | 52.13168 | 7.68371 | 164 ft | 19 kts | 342° |
| 2026-05-08 19:06 | 52.13286 | 7.68306 | 164 ft | 21 kts | 339° |
| 2026-05-08 19:06 | 52.13335 | 7.68277 | 164 ft | 0 kts | 341° |
| 2026-05-08 19:06 | 52.13337 | 7.68276 | 164 ft | 3 kts | 341° |
| 2026-05-08 19:07 | 52.13406 | 7.68268 | 164 ft | 18 kts | 21° |